Terminal Aerodrome Forecast
Issued by NWS

Home | Current Version | Previous Version | Text Only | Print | Product List | Glossary On
Versions: 1 2 3 4 5 6 7 8 9 10 11 12 13 14 15 16 17 18 19 20 21 22 23
000
FTUS41 KCAR 230500
TAFHUL
TAF
KHUL 230540Z 2306/2406 05012KT P6SM -RA OVC015
     FM230800 05012KT 5SM -RA OVC007
     FM231100 05012KT 3SM -RA SCT007 OVC015
     FM231700 05012G22KT 3SM +RA OVC010
     FM240000 05016G24KT 3SM +RA OVC007=

USA.gov is the U.S. government's official web portal to all federal, state and local government web resources and services.